createdAt,value
2023-05-02T00:00:41.155Z,0.45
2023-05-02T00:01:42.228Z,0.15
2023-05-02T00:02:43.343Z,0
2023-05-02T00:03:44.192Z,0
2023-05-02T00:04:45.173Z,0
2023-05-02T00:05:46.076Z,0.2
2023-05-02T00:06:47.226Z,0.09
2023-05-02T00:07:48.081Z,0.5
2023-05-02T00:08:49.105Z,0
2023-05-02T00:09:50.977Z,0
2023-05-02T00:10:52.155Z,0
2023-05-02T00:11:53.911Z,0
2023-05-02T00:12:55.119Z,0
2023-05-02T00:13:56.074Z,0.38
2023-05-02T00:14:57.249Z,0
2023-05-02T00:15:58.168Z,0.05
2023-05-02T00:16:59.245Z,0
2023-05-02T00:18:00.188Z,0
2023-05-02T00:19:01.143Z,0.34
2023-05-02T00:20:02.317Z,0
2023-05-02T00:21:03.101Z,0
2023-05-02T00:22:04.154Z,0
2023-05-02T00:23:05.053Z,0
2023-05-02T00:24:06.084Z,0
2023-05-02T00:25:07.177Z,0
2023-05-02T00:26:08.115Z,0
2023-05-02T00:27:09.241Z,0
2023-05-02T00:28:10.097Z,0
2023-05-02T00:29:11.575Z,0.33
2023-05-02T00:30:13.617Z,0.17
2023-05-02T00:31:15.284Z,0.55
2023-05-02T00:32:16.238Z,0
2023-05-02T00:33:17.082Z,0
2023-05-02T00:34:18.234Z,0
2023-05-02T00:35:19.183Z,0
2023-05-02T00:36:20.098Z,0.2
2023-05-02T00:37:21.140Z,0
2023-05-02T00:38:22.136Z,0.31
2023-05-02T00:39:23.319Z,0
2023-05-02T00:40:24.154Z,0
2023-05-02T00:41:25.308Z,0
2023-05-02T00:42:26.185Z,0
2023-05-02T00:43:27.158Z,0
2023-05-02T00:44:28.170Z,0
2023-05-02T00:45:29.278Z,0
2023-05-02T00:46:30.277Z,0
2023-05-02T00:47:31.299Z,0
2023-05-02T00:48:32.138Z,0.32
2023-05-02T00:49:33.137Z,0
2023-05-02T00:50:34.119Z,0.2
2023-05-02T00:51:35.251Z,0
2023-05-02T00:52:36.216Z,0
2023-05-02T00:53:37.377Z,0.7
2023-05-02T00:54:38.110Z,0.16
2023-05-02T00:55:39.238Z,0
2023-05-02T00:56:40.155Z,0
2023-05-02T00:57:41.133Z,0.26
2023-05-02T00:58:42.083Z,0
2023-05-02T00:59:43.176Z,0
2023-05-02T01:00:44.161Z,0.2
2023-05-02T01:01:45.351Z,0
2023-05-02T01:02:46.146Z,0.09
2023-05-02T01:03:47.212Z,0
2023-05-02T01:04:48.175Z,0.42
2023-05-02T01:05:49.277Z,0
2023-05-02T01:06:50.338Z,0
2023-05-02T01:07:51.236Z,0
2023-05-02T01:08:52.321Z,0
2023-05-02T01:09:53.266Z,0.35
2023-05-02T01:10:54.254Z,0
2023-05-02T01:11:55.090Z,0
2023-05-02T01:12:56.117Z,0
2023-05-02T01:13:57.898Z,0
2023-05-02T01:14:59.329Z,0
2023-05-02T01:16:00.375Z,0
2023-05-02T01:17:01.155Z,0
2023-05-02T01:18:02.151Z,0
2023-05-02T01:19:03.214Z,0
2023-05-02T01:20:04.130Z,0
2023-05-02T01:21:05.157Z,0
2023-05-02T01:22:06.143Z,0
2023-05-02T01:23:07.174Z,0
2023-05-02T01:24:08.210Z,0
2023-05-02T01:25:09.276Z,0
2023-05-02T01:26:10.270Z,0
2023-05-02T01:27:11.232Z,0
2023-05-02T01:28:12.229Z,0
2023-05-02T01:29:13.110Z,0
2023-05-02T01:30:14.173Z,0
2023-05-02T01:31:15.196Z,0
2023-05-02T01:32:16.139Z,0
2023-05-02T01:33:17.131Z,0
2023-05-02T01:34:18.133Z,0
2023-05-02T01:35:19.130Z,0
2023-05-02T01:36:20.212Z,0
2023-05-02T01:37:21.151Z,0
2023-05-02T01:38:22.201Z,0
2023-05-02T01:39:23.162Z,0
2023-05-02T01:40:24.221Z,0
2023-05-02T01:41:25.273Z,0
2023-05-02T01:42:26.192Z,0
2023-05-02T01:43:27.096Z,0
2023-05-02T01:44:28.210Z,0
2023-05-02T01:45:29.294Z,0
2023-05-02T01:46:30.226Z,0
2023-05-02T01:47:31.338Z,0
2023-05-02T01:48:32.156Z,0
2023-05-02T01:49:33.158Z,0
2023-05-02T01:50:34.138Z,0
2023-05-02T01:51:35.461Z,0
2023-05-02T01:52:36.138Z,0
2023-05-02T01:53:37.197Z,0
2023-05-02T01:54:38.116Z,0
2023-05-02T01:55:39.189Z,0
2023-05-02T01:56:40.141Z,0
2023-05-02T01:57:41.157Z,0
2023-05-02T01:58:42.149Z,0
2023-05-02T01:59:43.317Z,0
2023-05-02T02:00:44.169Z,0
2023-05-02T02:01:45.347Z,0
2023-05-02T02:02:46.188Z,0
2023-05-02T02:03:47.213Z,0
2023-05-02T02:04:48.178Z,0
2023-05-02T02:05:49.217Z,0
2023-05-02T02:06:50.174Z,0
2023-05-02T02:07:51.158Z,0
2023-05-02T02:08:52.221Z,0
2023-05-02T02:09:53.127Z,0
2023-05-02T02:10:54.180Z,0
2023-05-02T02:11:55.259Z,0
2023-05-02T02:12:56.200Z,0
2023-05-02T02:13:57.177Z,0
2023-05-02T02:14:58.127Z,0
2023-05-02T02:15:59.256Z,0
2023-05-02T02:17:00.239Z,0
2023-05-02T02:18:01.238Z,0
2023-05-02T02:19:02.217Z,0
2023-05-02T02:20:03.254Z,0
2023-05-02T02:21:04.189Z,0
2023-05-02T02:22:05.185Z,0
2023-05-02T02:23:06.217Z,0
2023-05-02T02:24:07.196Z,0
2023-05-02T02:25:08.215Z,0
2023-05-02T02:26:09.230Z,0
2023-05-02T02:27:10.137Z,0
2023-05-02T02:28:11.175Z,0
2023-05-02T02:29:12.216Z,0
2023-05-02T02:30:13.264Z,0
2023-05-02T02:31:14.351Z,0
2023-05-02T02:32:15.220Z,0
2023-05-02T02:33:16.195Z,0
2023-05-02T02:34:17.196Z,0
2023-05-02T02:35:18.760Z,0
2023-05-02T02:36:20.335Z,0
2023-05-02T02:37:21.159Z,0
2023-05-02T02:38:22.199Z,0.29
2023-05-02T02:39:23.185Z,0.17
2023-05-02T02:40:24.216Z,0
2023-05-02T02:41:25.228Z,0
2023-05-02T02:42:26.265Z,0
2023-05-02T02:43:27.223Z,0
2023-05-02T02:44:28.179Z,0
2023-05-02T02:45:29.314Z,0
2023-05-02T02:46:30.270Z,0
2023-05-02T02:47:31.318Z,0.08
2023-05-02T02:48:32.217Z,0.1
2023-05-02T02:49:33.203Z,0.66
2023-05-02T02:50:34.135Z,0.44
2023-05-02T02:51:35.293Z,0.3
2023-05-02T02:52:36.325Z,0.15
2023-05-02T02:53:37.333Z,0.83
2023-05-02T02:54:38.296Z,0.43
2023-05-02T02:55:39.413Z,0.31
2023-05-02T02:56:40.314Z,0.4
2023-05-02T02:57:41.189Z,0.06
2023-05-02T02:58:42.192Z,0
2023-05-02T02:59:43.172Z,0.11
2023-05-02T03:00:44.211Z,0.16
2023-05-02T03:01:45.255Z,0
2023-05-02T03:02:46.311Z,0
2023-05-02T03:03:47.258Z,0.12
2023-05-02T03:04:48.238Z,0.08
2023-05-02T03:05:49.154Z,0
2023-05-02T03:06:50.153Z,0
2023-05-02T03:07:51.258Z,0.65
2023-05-02T03:08:52.236Z,0.11
2023-05-02T03:09:53.232Z,0.4
2023-05-02T03:10:54.192Z,0.6
2023-05-02T03:11:55.357Z,0.26
2023-05-02T03:12:56.244Z,0.39
2023-05-02T03:13:57.161Z,0.05
2023-05-02T03:14:58.152Z,0.4
2023-05-02T03:15:59.440Z,0.56
2023-05-02T03:17:00.402Z,0.48
2023-05-02T03:18:01.435Z,0.08
2023-05-02T03:19:02.211Z,0
2023-05-02T03:20:03.241Z,0.22
2023-05-02T03:21:04.211Z,0.5
2023-05-02T03:22:05.204Z,0.06
2023-05-02T03:23:06.252Z,0.19
2023-05-02T03:24:07.166Z,0
2023-05-02T03:25:08.193Z,0
2023-05-02T03:26:09.173Z,0
2023-05-02T03:27:10.457Z,0
2023-05-02T03:28:11.290Z,0
2023-05-02T03:29:12.212Z,0
2023-05-02T03:30:13.186Z,0
2023-05-02T03:31:14.272Z,0
2023-05-02T03:32:15.233Z,0
2023-05-02T03:33:16.561Z,0
2023-05-02T03:34:17.242Z,0
2023-05-02T03:35:18.176Z,0
2023-05-02T03:36:19.253Z,0
2023-05-02T03:37:20.234Z,0
2023-05-02T03:38:21.192Z,0
2023-05-02T03:39:22.274Z,0
2023-05-02T03:40:23.253Z,0
2023-05-02T03:41:24.214Z,0
2023-05-02T03:42:25.191Z,0
2023-05-02T03:43:26.313Z,0
2023-05-02T03:44:27.277Z,0
2023-05-02T03:45:28.373Z,0
2023-05-02T03:46:29.271Z,0
2023-05-02T03:47:30.343Z,0
2023-05-02T03:48:31.314Z,0
2023-05-02T03:49:32.314Z,0
2023-05-02T03:50:33.207Z,0
2023-05-02T03:51:34.296Z,0
2023-05-02T03:52:35.315Z,0
2023-05-02T03:53:36.357Z,0
2023-05-02T03:54:37.234Z,0
2023-05-02T03:55:38.233Z,0
2023-05-02T03:56:40.715Z,0
2023-05-02T03:57:40.289Z,0
2023-05-02T03:58:41.216Z,0
2023-05-02T03:59:42.215Z,0
2023-05-02T04:00:43.295Z,0
2023-05-02T04:01:44.353Z,0
2023-05-02T04:02:45.406Z,0
2023-05-02T04:03:46.231Z,0.2
2023-05-02T04:04:47.624Z,0
2023-05-02T04:05:48.275Z,0
2023-05-02T04:06:49.402Z,0
2023-05-02T04:07:50.235Z,0
2023-05-02T04:08:51.215Z,0
2023-05-02T04:09:52.203Z,0
2023-05-02T04:10:53.221Z,0.43
2023-05-02T04:11:54.378Z,0.42
2023-05-02T04:12:55.399Z,0
2023-05-02T04:13:56.443Z,0
2023-05-02T04:14:57.663Z,0
2023-05-02T04:15:59.368Z,0
2023-05-02T04:17:00.590Z,0
2023-05-02T04:18:01.408Z,0
2023-05-02T04:19:02.322Z,0
2023-05-02T04:20:05.172Z,0
2023-05-02T04:21:04.195Z,0
2023-05-02T04:22:05.215Z,0
2023-05-02T04:23:06.241Z,0
2023-05-02T04:24:07.206Z,0
2023-05-02T04:25:08.305Z,0
2023-05-02T04:26:09.230Z,0
2023-05-02T04:27:10.370Z,0
2023-05-02T04:28:11.763Z,0
2023-05-02T04:29:13.421Z,0
2023-05-02T04:30:14.375Z,0
2023-05-02T04:31:16.394Z,0
2023-05-02T04:32:17.173Z,0
2023-05-02T04:33:18.276Z,0
2023-05-02T04:34:19.337Z,0
2023-05-02T04:35:21.000Z,0
2023-05-02T04:36:22.556Z,0
2023-05-02T04:37:23.807Z,0
2023-05-02T04:38:25.554Z,0
2023-05-02T04:39:26.238Z,0
2023-05-02T04:40:27.273Z,0
2023-05-02T04:41:28.222Z,0.28
2023-05-02T04:42:29.355Z,0.06
2023-05-02T04:43:30.710Z,0
2023-05-02T04:44:31.312Z,0.09
2023-05-02T04:45:32.312Z,0.09
2023-05-02T04:46:33.474Z,0.15
2023-05-02T04:47:34.382Z,0.15
2023-05-02T04:48:35.496Z,0.11
2023-05-02T04:49:36.248Z,0.17
2023-05-02T04:50:37.792Z,0.14
2023-05-02T04:51:39.471Z,0.32
2023-05-02T04:52:40.297Z,0
2023-05-02T04:53:41.775Z,0.25
2023-05-02T04:54:43.325Z,0.11
2023-05-02T04:55:44.371Z,0
2023-05-02T04:56:45.333Z,0
2023-05-02T04:57:46.284Z,0
2023-05-02T04:58:47.342Z,0
2023-05-02T04:59:48.352Z,0
2023-05-02T05:00:49.176Z,0
2023-05-02T05:01:50.335Z,0
2023-05-02T05:02:51.462Z,0
2023-05-02T05:03:52.387Z,0
2023-05-02T05:04:53.381Z,0
2023-05-02T05:05:54.349Z,0
2023-05-02T05:06:56.220Z,0
2023-05-02T05:07:57.334Z,0
2023-05-02T05:08:58.265Z,0
2023-05-02T05:09:59.664Z,0
2023-05-02T05:11:00.313Z,0
2023-05-02T05:12:01.257Z,0
2023-05-02T05:13:02.494Z,0
2023-05-02T05:14:03.420Z,0
2023-05-02T05:15:04.358Z,0
2023-05-02T05:16:05.539Z,0
2023-05-02T05:17:06.394Z,0
2023-05-02T05:18:07.346Z,0
2023-05-02T05:19:09.416Z,0
2023-05-02T05:20:10.252Z,0
2023-05-02T05:21:11.398Z,0
2023-05-02T05:22:12.335Z,0
2023-05-02T05:23:13.757Z,0
2023-05-02T05:24:15.834Z,0
2023-05-02T05:25:17.447Z,0
2023-05-02T05:26:18.232Z,0
2023-05-02T05:27:19.192Z,0
2023-05-02T05:28:20.250Z,0
2023-05-02T05:29:21.602Z,0
2023-05-02T05:30:22.677Z,0
2023-05-02T05:31:25.349Z,0
2023-05-02T05:32:26.593Z,0
2023-05-02T05:33:27.350Z,0
2023-05-02T05:34:28.453Z,0
2023-05-02T05:35:29.332Z,0
2023-05-02T05:36:30.434Z,0
2023-05-02T05:37:31.340Z,0
2023-05-02T05:38:32.635Z,0
2023-05-02T05:39:33.258Z,0
2023-05-02T05:40:34.213Z,0
2023-05-02T05:41:35.256Z,0
2023-05-02T05:42:36.789Z,0
2023-05-02T05:43:39.349Z,0
2023-05-02T05:44:40.759Z,0
2023-05-02T05:45:42.455Z,0
2023-05-02T05:46:43.291Z,0
2023-05-02T05:47:44.341Z,0
2023-05-02T05:48:45.456Z,0
2023-05-02T05:49:46.292Z,0
2023-05-02T05:50:47.637Z,0
2023-05-02T05:51:48.342Z,0
2023-05-02T05:52:49.311Z,0
2023-05-02T05:53:50.499Z,0
2023-05-02T05:54:51.448Z,0
2023-05-02T05:55:52.535Z,0
2023-05-02T05:56:53.386Z,0
2023-05-02T05:57:54.340Z,0
2023-05-02T05:58:55.263Z,0
2023-05-02T05:59:56.243Z,0
2023-05-02T06:00:57.620Z,0
2023-05-02T06:01:58.157Z,0
2023-05-02T06:02:59.374Z,0
2023-05-02T06:04:00.453Z,0
2023-05-02T06:05:01.561Z,0
2023-05-02T06:06:02.461Z,0
2023-05-02T06:07:03.280Z,0
2023-05-02T06:08:04.282Z,0
2023-05-02T06:09:05.301Z,0
2023-05-02T06:10:06.271Z,0
2023-05-02T06:11:07.267Z,0
2023-05-02T06:12:08.273Z,0
2023-05-02T06:13:09.239Z,0
2023-05-02T06:14:10.359Z,0
2023-05-02T06:15:11.248Z,0
2023-05-02T06:17:18.307Z,0
2023-05-02T06:18:19.282Z,0
2023-05-02T06:19:20.727Z,0
2023-05-02T06:20:22.771Z,0
2023-05-02T06:21:24.411Z,0
2023-05-02T06:22:25.325Z,0
2023-05-02T06:23:26.279Z,0
2023-05-02T06:24:28.058Z,0
2023-05-02T06:25:29.336Z,0.2
2023-05-02T06:26:30.319Z,0
2023-05-02T06:27:33.529Z,0
2023-05-02T06:28:32.719Z,0
2023-05-02T06:29:34.296Z,0
2023-05-02T06:30:35.533Z,0
2023-05-02T06:31:36.510Z,0
2023-05-02T06:32:37.714Z,0
2023-05-02T06:33:38.286Z,0
2023-05-02T06:34:39.419Z,0.25
2023-05-02T06:35:40.315Z,0.44
2023-05-02T06:36:41.344Z,0.08
2023-05-02T06:37:42.289Z,0.32
2023-05-02T06:38:43.235Z,0
2023-05-02T06:39:44.476Z,0.25
2023-05-02T06:40:45.369Z,0.34
2023-05-02T06:41:46.434Z,0.1
2023-05-02T06:42:47.318Z,0
2023-05-02T06:43:48.374Z,0
2023-05-02T06:44:49.393Z,0
2023-05-02T06:45:50.343Z,0
2023-05-02T06:46:51.255Z,0.11
2023-05-02T06:47:52.296Z,0
2023-05-02T06:48:53.363Z,0.12
2023-05-02T06:49:54.532Z,0.13
2023-05-02T06:50:55.254Z,0.08
2023-05-02T06:51:56.356Z,0.17
2023-05-02T06:52:57.354Z,0
2023-05-02T06:53:58.333Z,0.21
2023-05-02T06:54:59.340Z,0
2023-05-02T06:56:00.370Z,0
2023-05-02T06:57:02.138Z,0
2023-05-02T06:58:03.403Z,0
2023-05-02T06:59:04.326Z,0.23
2023-05-02T07:00:05.689Z,0.18
2023-05-02T07:01:06.361Z,0
2023-05-02T07:02:07.618Z,0
2023-05-02T07:03:08.442Z,0
2023-05-02T07:04:09.435Z,0.21
2023-05-02T07:05:10.519Z,0.44
2023-05-02T07:06:11.695Z,0.64
2023-05-02T07:07:13.362Z,0.14
2023-05-02T07:08:14.368Z,0.19
2023-05-02T07:09:15.257Z,0.37
2023-05-02T07:10:16.888Z,0.05
2023-05-02T07:11:18.339Z,0
2023-05-02T07:12:19.518Z,0.16
2023-05-02T07:13:20.323Z,0.59
2023-05-02T07:14:21.353Z,0.11
2023-05-02T07:15:22.385Z,0.32
2023-05-02T07:16:23.438Z,0
2023-05-02T07:17:24.427Z,0
2023-05-02T07:18:25.421Z,0
2023-05-02T07:19:26.415Z,0
2023-05-02T07:20:27.426Z,0.26
2023-05-02T07:21:28.392Z,0.12
2023-05-02T07:22:29.319Z,0.4
2023-05-02T07:23:30.342Z,0.44
2023-05-02T07:24:31.636Z,0.09
2023-05-02T07:25:32.285Z,0.21
2023-05-02T07:26:33.332Z,0
2023-05-02T07:27:34.331Z,0.21
2023-05-02T07:28:35.399Z,0.15
2023-05-02T07:29:36.338Z,0.43
2023-05-02T07:30:37.461Z,0.44
2023-05-02T07:31:39.503Z,0.24
2023-05-02T07:32:40.531Z,0.32
2023-05-02T07:33:41.418Z,0.13
2023-05-02T07:34:42.548Z,0
2023-05-02T07:35:43.323Z,0
2023-05-02T07:36:44.821Z,0
2023-05-02T07:37:46.326Z,0
2023-05-02T07:38:47.336Z,0.59
2023-05-02T07:39:48.282Z,0.52
2023-05-02T07:40:49.333Z,0.33
2023-05-02T07:41:50.314Z,0
2023-05-02T07:42:51.483Z,0
2023-05-02T07:43:52.460Z,0
2023-05-02T07:44:53.542Z,0.35
2023-05-02T07:45:54.454Z,0.36
2023-05-02T07:46:55.417Z,0.4
2023-05-02T07:47:56.461Z,0.66
2023-05-02T07:48:57.804Z,0.38
2023-05-02T07:49:59.626Z,0.4
2023-05-02T07:51:01.174Z,0.62
2023-05-02T07:52:03.378Z,0.6
2023-05-02T07:53:05.096Z,0.58
2023-05-02T07:54:06.476Z,0.51
2023-05-02T07:55:07.398Z,0.54
2023-05-02T07:56:09.411Z,0.58
2023-05-02T07:57:10.394Z,0.56
2023-05-02T07:58:11.562Z,0.19
2023-05-02T07:59:12.757Z,0
2023-05-02T08:00:14.575Z,0.14
2023-05-02T08:01:15.361Z,0.3
2023-05-02T08:02:16.402Z,0.3
2023-05-02T08:03:17.504Z,0.26
2023-05-02T08:04:18.537Z,0.7
2023-05-02T08:05:19.499Z,0.35
2023-05-02T08:06:20.437Z,0.21
2023-05-02T08:07:21.344Z,0.29
2023-05-02T08:08:24.902Z,0.21
2023-05-02T08:09:26.379Z,0.55
2023-05-02T08:10:27.381Z,0
2023-05-02T08:11:28.497Z,0
2023-05-02T08:12:29.455Z,0
2023-05-02T08:13:30.436Z,0
2023-05-02T08:14:31.423Z,0.47
2023-05-02T08:15:32.398Z,0.67
2023-05-02T08:16:34.359Z,0.45
2023-05-02T08:17:35.604Z,0.31
2023-05-02T08:18:36.369Z,0.44
2023-05-02T08:19:37.428Z,0.35
2023-05-02T08:20:38.390Z,0.65
2023-05-02T08:21:39.324Z,0.38
2023-05-02T08:22:40.468Z,0.26
2023-05-02T08:23:41.401Z,0.22
2023-05-02T08:24:42.380Z,0
2023-05-02T08:25:43.478Z,0
2023-05-02T08:26:44.640Z,0
2023-05-02T08:27:45.437Z,0
2023-05-02T08:28:46.356Z,0.08
2023-05-02T08:29:47.320Z,0.49
2023-05-02T08:30:48.332Z,0.54
2023-05-02T08:31:49.345Z,0.13
2023-05-02T08:32:50.484Z,0.33
2023-05-02T08:33:51.499Z,0.38
2023-05-02T08:34:52.529Z,0.17
2023-05-02T08:35:54.141Z,0
2023-05-02T08:36:56.844Z,0.21
2023-05-02T08:37:56.345Z,0.3
2023-05-02T08:38:57.438Z,0.5
2023-05-02T08:39:58.801Z,0.14
2023-05-02T08:40:59.423Z,0.16
2023-05-02T08:42:00.448Z,0
2023-05-02T08:43:01.511Z,0
2023-05-02T08:44:02.439Z,0
2023-05-02T08:45:03.859Z,0.11
2023-05-02T08:46:05.456Z,0.65
2023-05-02T08:47:06.917Z,0.41
2023-05-02T08:48:09.056Z,0.12
2023-05-02T08:49:09.495Z,0.15
2023-05-02T08:50:13.308Z,0.61
2023-05-02T08:51:14.598Z,0.43
2023-05-02T08:52:15.632Z,0.23
2023-05-02T08:53:16.435Z,0
2023-05-02T08:54:17.401Z,0
2023-05-02T08:55:18.885Z,0
2023-05-02T08:56:21.118Z,0.45
2023-05-02T08:57:22.833Z,0.38
2023-05-02T08:58:24.540Z,0.64
2023-05-02T08:59:25.555Z,0.29
2023-05-02T09:00:26.898Z,0.06
2023-05-02T09:01:28.550Z,0
2023-05-02T09:02:29.686Z,0.15
2023-05-02T09:03:30.560Z,0.27
2023-05-02T09:04:31.395Z,0.3
2023-05-02T09:05:32.411Z,0.23
2023-05-02T09:06:33.523Z,1.21
2023-05-02T09:07:34.484Z,0.63
2023-05-02T09:08:35.421Z,0
2023-05-02T09:09:36.539Z,0.98
2023-05-02T09:10:37.360Z,0.45
2023-05-02T09:11:38.565Z,0
2023-05-02T09:12:39.460Z,0.26
2023-05-02T09:13:40.375Z,0.33
2023-05-02T09:14:41.441Z,0.08
2023-05-02T09:15:42.755Z,0
2023-05-02T09:16:43.613Z,0
2023-05-02T09:17:44.497Z,0
2023-05-02T09:18:45.437Z,0
2023-05-02T09:19:46.563Z,0
2023-05-02T09:20:47.455Z,0
2023-05-02T09:21:48.651Z,0.24
2023-05-02T09:22:49.416Z,0.43
2023-05-02T09:23:50.433Z,0.59
2023-05-02T09:24:51.474Z,0.41
2023-05-02T09:25:52.454Z,0
2023-05-02T09:26:53.414Z,0.26
2023-05-02T09:27:54.596Z,0.17
2023-05-02T09:28:55.462Z,0.64
2023-05-02T09:29:56.396Z,0.15
2023-05-02T09:30:57.708Z,0.41
2023-05-02T09:31:58.404Z,0.39
2023-05-02T09:32:59.612Z,0.33
2023-05-02T09:34:00.509Z,0
2023-05-02T09:35:01.763Z,0
2023-05-02T09:36:02.471Z,0.11
2023-05-02T09:37:03.456Z,0.64
2023-05-02T09:38:04.481Z,0.95
2023-05-02T09:39:06.060Z,0.71
2023-05-02T09:40:07.556Z,0.36
2023-05-02T09:41:08.493Z,0.34
2023-05-02T09:42:09.492Z,0.65
2023-05-02T09:43:10.600Z,0.54
2023-05-02T09:44:11.488Z,0.58
2023-05-02T09:45:12.481Z,0.34
2023-05-02T09:46:13.524Z,0.85
2023-05-02T09:47:14.506Z,0.21
2023-05-02T09:48:15.412Z,0.81
2023-05-02T09:49:16.470Z,0.8
2023-05-02T09:50:17.515Z,0.44
2023-05-02T09:51:18.341Z,0.42
2023-05-02T09:52:19.409Z,0.36
2023-05-02T09:53:20.516Z,0.3
2023-05-02T09:54:21.416Z,0
2023-05-02T09:55:22.419Z,0.09
2023-05-02T09:56:24.801Z,0.47
2023-05-02T09:57:25.380Z,0.1
2023-05-02T09:58:26.426Z,0.34
2023-05-02T09:59:27.373Z,0
2023-05-02T10:00:28.433Z,0.25
2023-05-02T10:01:29.559Z,0.49
2023-05-02T10:02:31.010Z,1.54
2023-05-02T10:03:32.410Z,0.63
2023-05-02T10:04:34.481Z,0.63
2023-05-02T10:05:35.498Z,1.11
2023-05-02T10:06:36.955Z,1.16
2023-05-02T10:07:38.521Z,1.28
2023-05-02T10:08:39.425Z,0.66
2023-05-02T10:09:40.394Z,0.54
2023-05-02T10:10:42.160Z,0.68
2023-05-02T10:11:43.502Z,0.2
2023-05-02T10:12:44.376Z,0.75
2023-05-02T10:13:45.469Z,0.41
2023-05-02T10:14:46.517Z,0.49
2023-05-02T10:15:47.425Z,0.47
2023-05-02T10:16:48.410Z,0.17
2023-05-02T10:17:49.567Z,0.41
2023-05-02T10:18:50.432Z,0.3
2023-05-02T10:19:51.501Z,0
2023-05-02T10:20:52.446Z,0
2023-05-02T10:21:53.486Z,0.43
2023-05-02T10:22:54.496Z,0.36
2023-05-02T10:23:55.477Z,0.31
2023-05-02T10:24:56.478Z,0.68
2023-05-02T10:25:58.201Z,0.44
2023-05-02T10:26:58.564Z,0.66
2023-05-02T10:27:59.637Z,0.25
2023-05-02T10:29:00.522Z,0.4
2023-05-02T10:30:01.684Z,0.51
2023-05-02T10:31:02.618Z,0.48
2023-05-02T10:32:04.157Z,0.2
2023-05-02T10:33:05.995Z,0.87
2023-05-02T10:34:07.581Z,1
2023-05-02T10:35:08.554Z,0.59
2023-05-02T10:36:09.557Z,0.42
2023-05-02T10:37:10.658Z,0.91
2023-05-02T10:38:11.554Z,0.85
2023-05-02T10:39:12.474Z,0.97
2023-05-02T10:40:13.500Z,0.93
2023-05-02T10:41:14.462Z,0.49
2023-05-02T10:42:16.063Z,0.62
2023-05-02T10:43:17.493Z,0.65
2023-05-02T10:44:18.575Z,0.3
2023-05-02T10:45:19.640Z,0
2023-05-02T10:46:21.836Z,0.14
2023-05-02T10:47:23.735Z,0.12
2023-05-02T10:48:25.694Z,0.81
2023-05-02T10:49:26.477Z,0.77
2023-05-02T10:50:28.175Z,0.3
2023-05-02T10:51:29.263Z,0.35
2023-05-02T10:52:30.715Z,0
2023-05-02T10:53:31.971Z,1.04
2023-05-02T10:54:33.616Z,0.74
2023-05-02T10:55:34.822Z,0.8
2023-05-02T10:56:36.755Z,0.98
2023-05-02T10:57:37.539Z,0.26
2023-05-02T10:58:38.585Z,0.35
2023-05-02T10:59:39.581Z,0.4
2023-05-02T11:00:40.582Z,0.39
2023-05-02T11:01:41.558Z,0.43
2023-05-02T11:02:44.288Z,1.32
2023-05-02T11:03:45.686Z,0.55
2023-05-02T11:04:48.054Z,0.58
2023-05-02T11:05:49.895Z,0.97
2023-05-02T11:06:52.003Z,0.55
2023-05-02T11:07:53.951Z,0.81
2023-05-02T11:08:55.481Z,0.26
2023-05-02T11:09:57.306Z,0.14
2023-05-02T11:10:58.618Z,0.85
2023-05-02T11:11:59.691Z,0
2023-05-02T11:13:00.698Z,0
2023-05-02T11:14:01.672Z,0
2023-05-02T11:15:02.855Z,0
2023-05-02T11:16:03.620Z,0.54
2023-05-02T11:17:05.035Z,0.5
2023-05-02T11:18:06.969Z,0.53
2023-05-02T11:19:08.664Z,0.28
2023-05-02T11:20:10.240Z,0.34
2023-05-02T11:21:11.692Z,0.6
2023-05-02T11:22:12.495Z,0.79
2023-05-02T11:23:13.547Z,0.27
2023-05-02T11:24:14.873Z,0.04
2023-05-02T11:25:17.157Z,0.72
2023-05-02T11:26:18.645Z,0
2023-05-02T11:27:19.557Z,0.72
2023-05-02T11:28:20.611Z,0.83
2023-05-02T11:29:21.662Z,0.08
2023-05-02T11:30:22.653Z,0.27
2023-05-02T11:31:23.529Z,0.65
2023-05-02T11:32:24.968Z,0.1
2023-05-02T11:33:26.741Z,0.29
2023-05-02T11:34:27.913Z,0
2023-05-02T11:35:30.271Z,0.09
2023-05-02T11:36:31.687Z,0.12
2023-05-02T11:37:32.698Z,0.24
2023-05-02T11:38:33.718Z,0
2023-05-02T11:39:34.534Z,0
2023-05-02T11:40:35.633Z,0.3
2023-05-02T11:41:36.709Z,0.15
2023-05-02T11:42:41.313Z,0.47
2023-05-02T11:43:42.663Z,1.2
2023-05-02T11:44:43.648Z,0
2023-05-02T11:45:44.505Z,0
2023-05-02T11:46:45.739Z,0
2023-05-02T11:47:47.575Z,0.26
2023-05-02T11:48:48.548Z,0.71
2023-05-02T11:49:49.534Z,0.74
2023-05-02T11:50:50.949Z,0.96
2023-05-02T11:51:51.603Z,1.25
2023-05-02T11:52:52.589Z,0.93
2023-05-02T11:53:53.515Z,0
2023-05-02T11:54:54.815Z,0.32
2023-05-02T11:55:55.824Z,0.07
2023-05-02T11:56:56.435Z,0.52
2023-05-02T11:57:57.558Z,0.21
2023-05-02T11:58:58.599Z,0.66
2023-05-02T11:59:59.526Z,0.71
2023-05-02T12:01:00.543Z,0.71
2023-05-02T12:02:01.545Z,0.23
2023-05-02T12:03:02.758Z,0.77
2023-05-02T12:04:03.757Z,0.19
2023-05-02T12:05:04.949Z,0
2023-05-02T12:06:05.882Z,0.34
2023-05-02T12:07:09.068Z,0.35
2023-05-02T12:08:08.856Z,1.71
2023-05-02T12:09:11.064Z,0.38
2023-05-02T12:10:12.624Z,0.32
2023-05-02T12:11:14.654Z,1.11
2023-05-02T12:12:16.582Z,0.75
2023-05-02T12:13:17.636Z,0.39
2023-05-02T12:14:18.751Z,0.2
2023-05-02T12:15:19.765Z,0.2
2023-05-02T12:16:21.449Z,0.65
2023-05-02T12:17:22.890Z,0.82
2023-05-02T12:18:24.764Z,0.26
2023-05-02T12:19:28.170Z,0.17
2023-05-02T12:20:29.597Z,0.59
2023-05-02T12:21:30.666Z,0.33
2023-05-02T12:22:31.648Z,0.25
2023-05-02T12:23:33.141Z,0.32
2023-05-02T12:24:33.567Z,0.37
2023-05-02T12:25:34.725Z,0.15
2023-05-02T12:26:35.778Z,0.82
2023-05-02T12:27:36.746Z,0.71
2023-05-02T12:28:37.651Z,0.56
2023-05-02T12:29:39.064Z,0
2023-05-02T12:30:40.656Z,0.07
2023-05-02T12:31:41.807Z,0
2023-05-02T12:32:42.701Z,0.45
2023-05-02T12:33:43.599Z,0.19
2023-05-02T12:34:46.063Z,0
2023-05-02T12:35:47.837Z,0.15
2023-05-02T12:36:49.577Z,0.17
2023-05-02T12:37:51.295Z,0.14
2023-05-02T12:38:52.638Z,0
2023-05-02T12:39:54.121Z,0
2023-05-02T12:40:55.563Z,0
2023-05-02T12:41:56.609Z,0
2023-05-02T12:42:57.594Z,0.24
2023-05-02T12:43:58.584Z,0
2023-05-02T12:44:59.586Z,0
2023-05-02T12:46:01.647Z,0
2023-05-02T12:47:02.842Z,0
2023-05-02T12:48:04.239Z,0
2023-05-02T12:49:07.383Z,0
2023-05-02T12:50:10.223Z,0
2023-05-02T12:51:11.776Z,0
2023-05-02T12:52:12.737Z,0
2023-05-02T12:53:14.349Z,0
2023-05-02T12:54:15.578Z,0
2023-05-02T12:55:16.566Z,0
2023-05-02T12:56:17.536Z,0
2023-05-02T12:57:18.724Z,0
2023-05-02T12:58:19.703Z,0
2023-05-02T12:59:20.655Z,0
2023-05-02T13:00:21.514Z,0
2023-05-02T13:01:22.576Z,0
2023-05-02T13:02:23.657Z,0
2023-05-02T13:03:24.669Z,0
2023-05-02T13:04:25.778Z,0
2023-05-02T13:05:26.753Z,0
2023-05-02T13:06:28.099Z,0
2023-05-02T13:07:29.772Z,0
2023-05-02T13:08:30.614Z,0
2023-05-02T13:09:31.556Z,0
2023-05-02T13:10:33.588Z,0
2023-05-02T13:11:34.712Z,0
2023-05-02T13:12:35.656Z,0
2023-05-02T13:13:37.159Z,0
2023-05-02T13:14:38.779Z,0
2023-05-02T13:15:39.631Z,0
2023-05-02T13:16:40.845Z,0
2023-05-02T13:17:41.797Z,0
2023-05-02T13:18:44.070Z,0
2023-05-02T13:19:50.791Z,0
2023-05-02T13:20:45.602Z,0
2023-05-02T13:21:46.764Z,0
2023-05-02T13:22:47.913Z,0
2023-05-02T13:23:52.007Z,0
2023-05-02T13:24:54.052Z,0
2023-05-02T13:25:55.792Z,0
2023-05-02T13:26:57.073Z,0
2023-05-02T13:27:58.816Z,0
2023-05-02T13:29:00.729Z,0
2023-05-02T13:30:03.277Z,0
2023-05-02T13:31:02.863Z,0
2023-05-02T13:32:04.070Z,0
2023-05-02T13:33:05.734Z,0
2023-05-02T13:34:06.543Z,0
2023-05-02T13:35:07.625Z,0
2023-05-02T13:36:08.715Z,0
2023-05-02T13:37:09.625Z,0
2023-05-02T13:38:11.386Z,0
2023-05-02T13:39:12.731Z,0
2023-05-02T13:40:13.775Z,0
2023-05-02T13:41:14.749Z,0
2023-05-02T13:42:23.887Z,0
2023-05-02T13:43:33.771Z,0
2023-05-02T13:44:34.759Z,0
2023-05-02T13:45:35.579Z,0
2023-05-02T13:46:37.449Z,0
2023-05-02T13:47:40.229Z,0
2023-05-02T13:48:41.994Z,0
2023-05-02T13:49:43.766Z,0
2023-05-02T13:50:45.613Z,0
2023-05-02T13:51:46.566Z,0
2023-05-02T13:52:49.308Z,0
2023-05-02T13:53:49.694Z,0
2023-05-02T13:54:50.936Z,0
2023-05-02T13:55:52.676Z,0
2023-05-02T13:56:53.936Z,0
2023-05-02T13:57:56.304Z,0
2023-05-02T13:58:57.976Z,0
2023-05-02T14:00:00.218Z,0
2023-05-02T14:01:00.599Z,0
2023-05-02T14:02:01.712Z,0
2023-05-02T14:03:02.835Z,0
2023-05-02T14:04:03.835Z,0
2023-05-02T14:05:04.724Z,0
2023-05-02T14:06:05.718Z,0
2023-05-02T14:07:06.666Z,0
2023-05-02T14:08:07.679Z,0
2023-05-02T14:09:11.534Z,0
2023-05-02T14:10:13.023Z,0
2023-05-02T14:11:14.654Z,0
2023-05-02T14:12:15.592Z,0
2023-05-02T14:13:16.796Z,0
2023-05-02T14:14:17.957Z,0
2023-05-02T14:15:19.796Z,0
2023-05-02T14:16:21.144Z,0
2023-05-02T14:17:22.731Z,0
2023-05-02T14:18:23.565Z,0
2023-05-02T14:19:24.563Z,0
2023-05-02T14:20:25.608Z,0
2023-05-02T14:21:26.613Z,0
2023-05-02T14:22:27.679Z,0
2023-05-02T14:23:28.577Z,0
2023-05-02T14:24:30.296Z,0
2023-05-02T14:25:31.628Z,0
2023-05-02T14:26:32.656Z,0
2023-05-02T14:27:33.656Z,0
2023-05-02T14:28:35.195Z,0